Time;durP1;ratioP1;P1;durP2;ratioP2;P2;SDS_P1;SDS_P2;PMS_P1;PMS_P2;Temp;Humidity;BMP_temperature;BMP_pressure;BME280_temperature;BME280_humidity;BME280_pressure;Samples;Min_cycle;Max_cycle;Signal;HPM_P1;HPM_P2
2021/04/02 00:01:26;;;;;;;46.95;26.50;;;;;;;5.10;100.00;100577.18;1780226;80;21132;-91
2021/04/02 00:07:25;;;;;;;44.03;26.12;;;;;;;4.70;100.00;100568.49;1775306;80;21171;-92
2021/04/02 00:10:00;;;;;;;44.05;27.95;;;;;;;4.70;100.00;100568.49;1775246;80;21160;-91
2021/04/02 00:12:28;;;;;;;45.75;26.15;;;;;;;4.68;100.00;100569.88;1775321;80;21152;-92
2021/04/02 00:15:09;;;;;;;41.92;26.93;;;;;;;4.66;100.00;100560.08;1775352;80;21128;-91
2021/04/02 00:17:40;;;;;;;42.43;26.83;;;;;;;4.62;100.00;100561.13;1772540;80;21382;-91
2021/04/02 00:20:14;;;;;;;44.25;28.57;;;;;;;4.61;100.00;100555.59;1775256;80;21159;-91
2021/04/02 00:22:43;;;;;;;77.03;39.03;;;;;;;4.36;100.00;100558.59;1771490;80;21464;-91
2021/04/02 00:25:14;;;;;;;67.47;34.03;;;;;;;4.36;100.00;100558.59;1775344;80;21077;-91
2021/04/02 00:28:13;;;;;;;59.38;31.45;;;;;;;4.26;100.00;100554.35;1775395;80;21124;-91
2021/04/02 00:30:47;;;;;;;55.52;29.40;;;;;;;4.25;100.00;100553.50;1775195;80;22283;-91
2021/04/02 00:33:46;;;;;;;46.23;28.05;;;;;;;4.33;100.00;100551.00;1770378;80;21127;-91
2021/04/02 00:36:14;;;;;;;44.50;28.57;;;;;;;4.32;100.00;100552.75;1769801;81;21584;-91
2021/04/02 00:38:44;;;;;;;47.45;27.73;;;;;;;4.29;100.00;100552.89;1769681;81;21171;-91
2021/04/02 00:41:17;;;;;;;44.93;26.95;;;;;;;4.21;100.00;100544.70;1769557;81;21537;-91
2021/04/02 00:57:17;;;;;;;46.18;25.23;;;;;;;3.72;100.00;100525.61;1813610;79;22659;-91
2021/04/02 00:59:47;;;;;;;34.55;21.87;;;;;;;3.62;100.00;100528.23;1780571;80;20996;-91
2021/04/02 01:02:17;;;;;;;35.68;22.73;;;;;;;3.61;100.00;100520.12;1784898;79;21529;-92
2021/04/02 01:04:46;;;;;;;38.23;23.77;;;;;;;3.60;100.00;100520.59;1766300;80;21147;-91
2021/04/02 01:07:15;;;;;;;41.35;24.70;;;;;;;3.63;100.00;100520.89;1811085;78;21522;-91
2021/04/02 01:09:45;;;;;;;38.42;23.30;;;;;;;3.63;100.00;100520.89;1814582;78;21110;-91
2021/04/02 01:12:16;;;;;;;44.65;25.32;;;;;;;3.62;100.00;100515.36;1817762;78;21174;-91
2021/04/02 01:14:45;;;;;;;34.35;25.08;;;;;;;3.61;100.00;100513.69;1785608;79;21201;-91
2021/04/02 01:17:19;;;;;;;50.45;27.45;;;;;;;3.50;100.00;100503.90;1814635;78;21391;-91
2021/04/02 01:19:53;;;;;;;37.75;23.67;;;;;;;3.50;100.00;100503.90;1811340;78;20937;-91
2021/04/02 01:22:27;;;;;;;35.25;23.02;;;;;;;3.44;100.00;100501.63;1814930;78;21130;-91
2021/04/02 01:25:15;;;;;;;39.67;23.20;;;;;;;3.44;100.00;100499.05;1812308;78;21158;-92
2021/04/02 01:28:12;;;;;;;38.83;23.35;;;;;;;3.48;100.00;100501.84;1814055;79;21417;-92
2021/04/02 01:30:42;;;;;;;33.53;22.05;;;;;;;3.44;100.00;100489.56;1816504;78;21119;-91
2021/04/02 01:33:12;;;;;;;38.35;23.47;;;;;;;3.43;100.00;100490.94;1817387;78;21174;-90
2021/04/02 01:35:43;;;;;;;42.48;23.45;;;;;;;3.48;100.00;100489.79;1813014;78;22209;-90
2021/04/02 01:38:24;;;;;;;40.20;25.25;;;;;;;3.56;100.00;100486.86;1814581;78;21189;-91
2021/04/02 01:40:58;;;;;;;41.92;25.32;;;;;;;3.60;100.00;100483.25;1814103;78;21355;-91
2021/04/02 01:43:35;;;;;;;43.23;26.90;;;;;;;3.57;100.00;100478.67;1813990;78;21221;-91
2021/04/02 01:46:06;;;;;;;41.45;26.05;;;;;;;3.55;100.00;100486.95;1814735;77;21075;-91
2021/04/02 01:48:38;;;;;;;43.87;27.15;;;;;;;3.53;100.00;100485.70;1814873;78;21051;-91
2021/04/02 01:51:08;;;;;;;47.40;27.93;;;;;;;3.53;100.00;100473.30;1815261;78;21115;-92
2021/04/02 01:53:44;;;;;;;43.17;27.93;;;;;;;3.55;100.00;100472.31;1816329;78;21358;-92
2021/04/02 01:56:14;;;;;;;49.13;27.27;;;;;;;3.66;100.00;100478.23;1815387;78;21112;-92
2021/04/02 01:58:45;;;;;;;49.90;29.10;;;;;;;3.76;100.00;100479.93;1815217;78;21597;-92
2021/04/02 02:01:16;;;;;;;48.35;28.60;;;;;;;3.83;100.00;100476.58;1815581;78;21137;-93
2021/04/02 02:03:51;;;;;;;45.78;27.70;;;;;;;3.81;100.00;100466.80;1815229;79;21154;-92
2021/04/02 02:06:24;;;;;;;54.53;30.00;;;;;;;3.94;100.00;100467.87;1811251;78;21427;-93
2021/04/02 02:10:33;;;;;;;56.35;31.80;;;;;;;4.07;100.00;100474.55;1852750;77;22799;-90
2021/04/02 02:13:03;;;;;;;57.10;31.23;;;;;;;4.00;100.00;100470.61;1812889;78;21107;-90
2021/04/02 02:15:38;;;;;;;55.05;32.53;;;;;;;3.96;100.00;100472.51;1843089;77;21497;-91
2021/04/02 02:18:13;;;;;;;68.28;35.00;;;;;;;3.96;100.00;100459.62;1846084;77;21171;-91
2021/04/02 02:20:46;;;;;;;65.90;36.23;;;;;;;3.96;100.00;100459.62;1840948;77;21179;-92
2021/04/02 02:23:16;;;;;;;67.08;35.20;;;;;;;3.78;100.00;100462.20;1809145;79;20982;-91
2021/04/02 02:25:46;;;;;;;67.95;36.75;;;;;;;3.78;100.00;100462.20;1817473;77;21139;-91
2021/04/02 02:28:16;;;;;;;63.20;34.50;;;;;;;3.69;100.00;100460.06;1804805;79;21198;-90
2021/04/02 02:30:45;;;;;;;61.35;33.33;;;;;;;3.65;100.00;100459.00;1818452;77;20983;-92
2021/04/02 02:33:19;;;;;;;64.82;33.25;;;;;;;3.58;100.00;100461.03;1787884;79;21533;-90
2021/04/02 02:35:50;;;;;;;62.73;34.20;;;;;;;3.50;100.00;100452.84;1811721;79;21521;-90
2021/04/02 02:38:22;;;;;;;60.88;32.88;;;;;;;3.43;100.00;100453.14;1815688;79;21179;-91
2021/04/02 02:40:50;;;;;;;62.33;33.93;;;;;;;3.39;100.00;100446.92;1795003;79;21422;-91
2021/04/02 02:43:26;;;;;;;58.70;33.45;;;;;;;3.35;100.00;100452.67;1788066;79;21557;-91
2021/04/02 02:46:26;;;;;;;52.65;31.55;;;;;;;3.30;100.00;100446.45;1767513;80;21095;-91
2021/04/02 02:49:03;;;;;;;47.70;30.75;;;;;;;3.29;100.00;100443.49;1814205;79;21615;-92
2021/04/02 02:51:41;;;;;;;48.00;28.73;;;;;;;3.34;100.00;100443.28;1811977;79;21164;-91
2021/04/02 02:54:18;;;;;;;44.30;27.40;;;;;;;3.43;100.00;100441.56;1815613;79;21363;-92
2021/04/02 02:56:51;;;;;;;56.63;30.08;;;;;;;3.56;100.00;100446.13;1814894;79;21147;-93
2021/04/02 02:59:49;;;;;;;42.13;27.90;;;;;;;3.67;100.00;100441.27;1815755;78;21156;-92
2021/04/02 03:02:55;;;;;;;44.13;28.27;;;;;;;3.81;100.00;100445.75;1815579;79;21115;-91
2021/04/02 03:05:30;;;;;;;51.30;29.72;;;;;;;3.81;100.00;100445.75;1815627;78;21549;-91
2021/04/02 03:08:05;;;;;;;57.65;29.18;;;;;;;3.72;100.00;100445.77;1815645;79;22342;-91
2021/04/02 03:10:36;;;;;;;47.98;29.50;;;;;;;3.72;100.00;100445.77;1815532;79;21163;-91
2021/04/02 03:13:06;;;;;;;48.92;30.37;;;;;;;3.65;100.00;100443.55;1815701;79;21096;-90
2021/04/02 03:16:03;;;;;;;55.17;31.55;;;;;;;3.60;100.00;100439.91;1815681;79;21541;-91
2021/04/02 03:19:00;;;;;;;50.15;29.63;;;;;;;3.54;100.00;100435.06;1813593;78;21842;-91
2021/04/02 03:21:32;;;;;;;49.50;27.37;;;;;;;3.44;100.00;100437.27;1789200;80;21586;-91
2021/04/02 03:24:10;;;;;;;49.77;27.70;;;;;;;3.42;100.00;100430.88;1785884;80;21063;-90
2021/04/02 03:26:42;;;;;;;50.52;27.55;;;;;;;3.45;100.00;100428.60;1789108;80;21170;-91
2021/04/02 03:29:13;;;;;;;52.98;30.08;;;;;;;3.47;100.00;100425.51;1786082;80;21566;-91
2021/04/02 03:31:50;;;;;;;54.85;30.30;;;;;;;3.47;100.00;100421.21;1766988;80;21174;-91
2021/04/02 03:34:25;;;;;;;54.30;30.23;;;;;;;3.42;100.00;100411.56;1767154;80;21554;-92
2021/04/02 03:36:56;;;;;;;55.75;30.32;;;;;;;3.42;100.00;100411.56;1789065;80;21106;-91
2021/04/02 03:39:56;;;;;;;46.42;30.23;;;;;;;3.41;100.00;100418.91;1788997;80;21121;-92
2021/04/02 03:46:01;;;;;;;50.67;31.90;;;;;;;3.31;100.00;100415.13;1771170;81;21171;-91
2021/04/02 03:53:07;;;;;;;52.93;30.77;;;;;;;3.11;100.00;100405.32;1809256;79;21175;-90
2021/04/02 03:56:04;;;;;;;51.28;29.95;;;;;;;3.03;100.00;100404.84;1767712;79;21104;-90
2021/04/02 03:58:35;;;;;;;47.23;29.25;;;;;;;3.06;100.00;100409.86;1828729;78;21144;-91
2021/04/02 04:01:10;;;;;;;49.75;31.40;;;;;;;3.10;100.00;100403.65;1827958;78;21587;-91
2021/04/02 04:03:43;;;;;;;52.40;30.08;;;;;;;3.11;100.00;100402.75;1827973;78;21363;-90
2021/04/02 04:06:20;;;;;;;47.65;30.27;;;;;;;3.13;100.00;100406.52;1767701;80;21155;-91
2021/04/02 04:08:59;;;;;;;53.52;30.32;;;;;;;3.19;100.00;100407.98;1792210;78;21108;-91
2021/04/02 04:11:34;;;;;;;45.23;27.52;;;;;;;3.22;100.00;100410.42;1801419;79;21183;-90
2021/04/02 04:14:32;;;;;;;40.75;26.20;;;;;;;3.29;100.00;100406.17;1803565;79;21067;-90
2021/04/02 04:17:12;;;;;;;42.90;28.83;;;;;;;3.45;100.00;100411.87;1803492;78;21353;-91
2021/04/02 04:19:52;;;;;;;49.03;29.32;;;;;;;3.69;100.00;100400.83;1800333;78;21508;-90
2021/04/02 04:25:46;;;;;;;78.02;28.60;;;;;;;3.91;100.00;100401.03;1790761;78;21072;-90
2021/04/02 04:28:18;;;;;;;61.60;29.67;;;;;;;4.02;100.00;100393.60;1802483;78;21142;-89
2021/04/02 04:30:48;;;;;;;48.78;28.95;;;;;;;4.13;100.00;100389.18;1807906;78;21607;-90
2021/04/02 04:33:21;;;;;;;46.13;28.33;;;;;;;4.28;100.00;100387.56;1815595;79;21123;-90
2021/04/02 04:35:51;;;;;;;110.52;33.00;;;;;;;4.42;100.00;100390.23;1814796;79;21083;-90
2021/04/02 04:38:20;;;;;;;69.15;28.12;;;;;;;4.65;100.00;100388.17;1797095;79;21568;-90
2021/04/02 04:40:51;;;;;;;70.03;29.77;;;;;;;4.76;100.00;100382.90;1809265;78;21127;-90
2021/04/02 04:43:24;;;;;;;62.65;30.10;;;;;;;4.76;100.00;100382.90;1795493;79;21195;-90
2021/04/02 04:45:55;;;;;;;68.45;32.50;;;;;;;4.95;100.00;100380.95;1787119;79;21155;-90
2021/04/02 04:48:24;;;;;;;72.37;30.62;;;;;;;5.19;100.00;100377.92;1848319;77;21464;-90
2021/04/02 04:50:52;;;;;;;49.30;30.27;;;;;;;5.43;100.00;100381.31;1834584;77;21131;-89
2021/04/02 04:53:30;;;;;;;79.40;31.10;;;;;;;5.64;100.00;100373.64;1795167;79;21132;-90
2021/04/02 04:56:27;;;;;;;54.03;29.27;;;;;;;5.82;100.00;100367.84;1807921;79;21363;-90
2021/04/02 04:59:00;;;;;;;60.45;30.37;;;;;;;5.99;100.00;100363.46;1810428;79;21097;-91
2021/04/02 05:01:41;;;;;;;44.95;29.42;;;;;;;6.18;100.00;100364.91;1810066;79;21132;-88
2021/04/02 05:04:13;;;;;;;64.65;30.45;;;;;;;6.28;100.00;100356.97;1775587;80;21594;-89
2021/04/02 05:06:42;;;;;;;46.10;29.85;;;;;;;6.37;100.00;100362.87;1794654;79;21143;-89
2021/04/02 05:09:11;;;;;;;43.50;28.73;;;;;;;6.44;100.00;100360.28;1800968;79;21353;-89
2021/04/02 05:11:41;;;;;;;48.48;29.18;;;;;;;6.52;100.00;100361.55;1810212;78;21481;-89
2021/04/02 05:14:11;;;;;;;52.70;32.50;;;;;;;6.58;100.00;100358.13;1810307;78;21230;-90
2021/04/02 05:16:41;;;;;;;44.75;30.30;;;;;;;6.66;100.00;100362.81;1830890;78;21128;-89
2021/04/02 05:19:11;;;;;;;42.20;30.60;;;;;;;6.74;100.00;100360.58;1830735;77;21077;-88
2021/04/02 05:21:42;;;;;;;41.33;30.15;;;;;;;6.83;100.00;100355.74;1827564;78;21356;-88
2021/04/02 05:24:12;;;;;;;46.42;30.82;;;;;;;6.93;100.00;100358.94;1805225;77;21198;-87
2021/04/02 05:26:41;;;;;;;44.35;31.17;;;;;;;7.06;100.00;100359.46;1784065;77;21135;-91
2021/04/02 05:29:12;;;;;;;49.93;34.03;;;;;;;7.17;100.00;100362.17;1774766;80;21196;-90
2021/04/02 05:36:12;;;;;;;49.93;35.30;;;;;;;7.43;100.00;100362.23;1789684;79;21092;-92
2021/04/02 05:38:40;;;;;;;53.60;34.55;;;;;;;7.63;100.00;100356.20;1803343;79;21127;-92
2021/04/02 05:44:41;;;;;;;;;;;;;;;7.87;100.00;100359.73;1792579;79;21119;-90
2021/04/02 05:47:10;;;;;;;49.48;33.02;;;;;;;8.05;100.00;100358.13;1791240;79;20245;-92
2021/04/02 05:50:12;;;;;;;46.05;34.78;;;;;;;8.17;100.00;100356.45;1803376;79;21241;-92
2021/04/02 05:52:42;;;;;;;51.35;34.65;;;;;;;8.28;100.00;100346.14;1780496;79;21186;-91
2021/04/02 05:59:03;;;;;;;52.55;37.42;;;;;;;8.57;100.00;100348.95;1805094;79;21144;-90
2021/04/02 06:06:29;;;;;;;67.42;43.70;;;;;;;8.90;100.00;100343.58;1801504;79;21139;-93
2021/04/02 06:08:58;;;;;;;54.70;36.05;;;;;;;9.14;100.00;100339.20;1770214;79;21119;-92
2021/04/02 06:11:27;;;;;;;53.68;37.83;;;;;;;9.32;100.00;100337.48;1772892;80;21135;-93
2021/04/02 06:13:59;;;;;;;52.70;37.88;;;;;;;9.45;100.00;100338.22;1751014;81;21124;-92
2021/04/02 06:16:30;;;;;;;52.38;39.13;;;;;;;9.60;100.00;100336.70;1772466;81;21595;-92
2021/04/02 06:19:08;;;;;;;54.35;38.25;;;;;;;9.74;100.00;100327.86;1751127;81;22399;-92
2021/04/02 06:21:57;;;;;;;49.30;35.83;;;;;;;9.88;100.00;100330.72;1772379;81;21084;-92
2021/04/02 06:24:47;;;;;;;47.03;33.38;;;;;;;10.01;100.00;100328.00;1772459;81;21551;-92
2021/04/02 06:27:15;;;;;;;43.02;32.50;;;;;;;10.18;100.00;100329.28;1752889;81;21163;-92
2021/04/02 06:30:01;;;;;;;50.35;34.98;;;;;;;10.33;100.00;100328.08;1772542;80;21148;-93
2021/04/02 06:32:36;;;;;;;47.20;35.00;;;;;;;10.48;100.00;100325.23;1782782;79;22363;-92
2021/04/02 06:35:09;;;;;;;52.55;35.85;;;;;;;10.62;100.00;100320.23;1787208;79;21187;-91
2021/04/02 06:37:42;;;;;;;47.00;33.48;;;;;;;10.77;100.00;100323.40;1798673;79;21157;-93
2021/04/02 06:40:20;;;;;;;47.03;34.58;;;;;;;10.89;100.00;100323.69;1779865;79;21141;-92
2021/04/02 06:42:49;;;;;;;49.75;37.05;;;;;;;11.01;100.00;100324.02;1804668;79;21146;-93
2021/04/02 06:45:20;;;;;;;51.40;35.95;;;;;;;11.15;100.00;100319.44;1794494;79;21190;-93
2021/04/02 06:47:49;;;;;;;41.60;29.50;;;;;;;11.26;100.00;100318.55;1803655;79;21215;-92
2021/04/02 06:50:23;;;;;;;38.58;30.00;;;;;;;11.35;100.00;100308.17;1790882;79;21545;-92
2021/04/02 06:52:56;;;;;;;39.83;29.98;;;;;;;11.47;100.00;100308.12;1785424;79;21183;-93
2021/04/02 06:55:27;;;;;;;39.38;28.35;;;;;;;11.59;100.00;100309.68;1778357;80;21125;-92
2021/04/02 07:02:23;;;;;;;37.73;29.35;;;;;;;11.83;97.25;100312.47;1809242;79;21183;-93
2021/04/02 07:04:54;;;;;;;31.55;24.07;;;;;;;12.07;93.76;100307.43;1810561;79;21139;-93
2021/04/02 07:07:23;;;;;;;30.60;23.80;;;;;;;12.17;89.75;100298.34;1810692;79;21128;-93
2021/04/02 07:09:56;;;;;;;31.90;24.92;;;;;;;12.25;87.62;100291.48;1789908;79;21164;-93
2021/04/02 07:16:23;;;;;;;27.90;22.55;;;;;;;12.48;85.37;100284.72;1773415;81;21532;-92
2021/04/02 07:19:27;;;;;;;33.42;23.38;;;;;;;12.67;81.16;100275.25;1773438;81;21107;-93
2021/04/02 07:22:00;;;;;;;36.33;28.12;;;;;;;12.79;79.20;100274.14;1786971;80;21136;-94
2021/04/02 07:24:32;;;;;;;26.27;21.60;;;;;;;12.91;79.22;100274.35;1778436;79;21139;-93
2021/04/02 07:27:00;;;;;;;;;;;;;;;13.02;73.83;100268.14;1773815;80;21373;-94
2021/04/02 07:29:59;;;;;;;28.38;20.35;;;;;;;13.13;74.86;100275.50;1788693;79;20248;-93
2021/04/02 07:36:36;;;;;;;24.67;19.00;;;;;;;13.31;68.42;100270.36;1804287;79;21587;-92
2021/04/02 07:39:08;;;;;;;28.05;21.35;;;;;;;13.38;67.54;100272.75;1773382;79;21140;-95
2021/04/02 07:41:47;;;;;;;38.70;19.65;;;;;;;13.45;65.90;100268.63;1773362;81;21511;-94
2021/04/02 07:44:18;;;;;;;20.65;16.90;;;;;;;13.46;65.88;100274.20;1771171;81;21162;-92
2021/04/02 07:47:08;;;;;;;23.60;18.23;;;;;;;13.46;62.30;100271.59;1773261;81;21619;-91
2021/04/02 07:49:54;;;;;;;43.70;28.00;;;;;;;13.46;62.00;100265.55;1749453;80;21115;-92
2021/04/02 07:52:40;;;;;;;39.92;25.40;;;;;;;13.48;62.14;100265.73;1749522;81;21563;-92
2021/04/02 07:55:16;;;;;;;31.33;22.75;;;;;;;13.52;61.53;100267.09;1773334;81;21261;-92
2021/04/02 07:58:05;;;;;;;37.48;26.37;;;;;;;13.56;64.67;100264.54;1792110;79;21127;-93
2021/04/02 08:00:36;;;;;;;36.38;22.70;;;;;;;13.64;64.03;100265.61;1809223;79;21124;-91
2021/04/02 08:03:33;;;;;;;27.60;21.80;;;;;;;13.67;63.03;100266.14;1809898;79;21116;-91
2021/04/02 08:09:54;;;;;;;28.35;20.75;;;;;;;13.87;63.85;100266.04;1773235;79;21361;-92
2021/04/02 08:12:52;;;;;;;39.35;22.95;;;;;;;14.02;62.18;100262.46;1753667;81;21643;-91
2021/04/02 08:19:33;;;;;;;21.45;17.62;;;;;;;14.18;59.39;100257.41;1755383;79;21203;-90
2021/04/02 08:22:15;;;;;;;23.22;17.30;;;;;;;14.27;58.53;100252.25;1755183;81;21181;-92
2021/04/02 08:24:47;;;;;;;20.82;16.62;;;;;;;14.35;58.48;100248.41;1752771;81;21330;-92
2021/04/02 08:27:17;;;;;;;34.20;20.80;;;;;;;14.45;60.76;100240.47;1734192;81;21064;-92
2021/04/02 08:30:01;;;;;;;23.20;18.03;;;;;;;14.60;61.13;100240.27;1755250;79;21147;-92
2021/04/02 08:32:18;;;;;;;22.32;17.40;;;;;;;14.72;58.48;100233.03;1752380;80;21387;-91
2021/04/02 08:34:47;;;;;;;26.50;19.35;;;;;;;14.82;59.43;100228.53;1734461;81;21104;-92
2021/04/02 08:37:16;;;;;;;23.25;18.32;;;;;;;14.95;57.62;100231.22;1755403;80;21208;-91
2021/04/02 08:39:48;;;;;;;27.52;20.43;;;;;;;15.05;56.63;100228.02;1755202;79;21119;-92
2021/04/02 08:42:18;;;;;;;30.23;19.80;;;;;;;15.12;58.73;100226.93;1756406;80;21136;-93
2021/04/02 08:44:47;;;;;;;27.60;19.48;;;;;;;15.22;56.88;100224.20;1762132;80;21149;-92
2021/04/02 08:47:19;;;;;;;32.13;19.05;;;;;;;15.26;56.90;100215.86;1755389;81;21202;-92
2021/04/02 08:49:55;;;;;;;20.27;16.40;;;;;;;15.31;55.40;100203.59;1762535;79;22203;-92
2021/04/02 08:52:29;;;;;;;23.47;17.73;;;;;;;15.36;53.46;100198.69;1756386;81;21092;-92
2021/04/02 08:55:27;;;;;;;26.82;16.30;;;;;;;15.42;54.66;100192.00;1757873;81;21161;-92
2021/04/02 08:58:00;;;;;;;16.65;14.40;;;;;;;15.54;53.15;100188.59;1776694;79;21110;-91
2021/04/02 09:00:29;;;;;;;17.42;14.78;;;;;;;15.64;54.07;100180.12;1775476;80;21164;-92
2021/04/02 09:02:59;;;;;;;26.95;15.45;;;;;;;15.74;52.92;100176.84;1798847;79;22126;-91
2021/04/02 09:05:29;;;;;;;18.10;13.90;;;;;;;15.84;52.80;100175.92;1793483;79;21134;-92
2021/04/02 09:08:03;;;;;;;21.48;15.68;;;;;;;15.96;51.75;100172.02;1802578;77;21184;-93
2021/04/02 09:10:33;;;;;;;17.90;14.07;;;;;;;16.07;52.01;100175.63;1803528;78;21135;-92
2021/04/02 09:13:02;;;;;;;16.42;14.25;;;;;;;16.09;50.30;100181.55;1790644;79;21227;-92
2021/04/02 09:15:33;;;;;;;21.37;15.00;;;;;;;16.08;50.27;100175.97;1758265;79;21362;-90
2021/04/02 09:18:16;;;;;;;18.60;14.40;;;;;;;16.12;50.35;100179.09;1748184;79;21183;-92
2021/04/02 09:20:45;;;;;;;15.95;13.60;;;;;;;16.19;50.69;100177.45;1765082;79;21123;-92
2021/04/02 09:23:20;;;;;;;25.08;16.00;;;;;;;16.30;50.48;100172.87;1776864;80;21132;-92
2021/04/02 09:25:51;;;;;;;14.85;11.80;;;;;;;16.38;49.29;100173.69;1733638;80;21195;-91
2021/04/02 09:28:25;;;;;;;16.42;11.90;;;;;;;16.42;49.30;100170.27;1780893;80;21242;-91
2021/04/02 09:31:18;;;;;;;18.37;12.40;;;;;;;16.51;46.24;100164.50;1800266;79;21079;-91
2021/04/02 09:34:03;;;;;;;19.80;12.93;;;;;;;16.51;46.59;100165.81;1789410;79;21663;-92
2021/04/02 09:36:43;;;;;;;16.65;11.95;;;;;;;16.51;45.90;100163.19;1802778;78;21134;-91
2021/04/02 09:39:21;;;;;;;13.18;11.28;;;;;;;16.55;44.64;100156.59;1773975;79;21151;-90
2021/04/02 09:41:54;;;;;;;13.13;10.85;;;;;;;16.60;44.56;100158.26;1777144;79;21576;-90
2021/04/02 09:44:28;;;;;;;17.23;10.70;;;;;;;16.65;44.34;100151.19;1796607;79;21128;-90
2021/04/02 09:47:06;;;;;;;13.43;9.70;;;;;;;16.76;42.85;100155.27;1797927;78;21117;-90
2021/04/02 09:49:37;;;;;;;13.60;10.18;;;;;;;16.87;44.10;100156.22;1821336;78;21122;-90
2021/04/02 09:52:08;;;;;;;13.68;10.18;;;;;;;17.06;44.82;100149.82;1788424;78;21146;-91
2021/04/02 09:54:38;;;;;;;17.32;11.55;;;;;;;17.26;41.92;100148.09;1753237;79;22360;-89
2021/04/02 09:57:14;;;;;;;17.00;10.93;;;;;;;17.29;40.41;100135.92;1771816;78;21545;-88
2021/04/02 10:00:11;;;;;;;13.58;10.10;;;;;;;17.21;41.33;100138.08;1774116;78;21567;-89
2021/04/02 10:07:04;;;;;;;11.57;8.45;;;;;;;17.20;39.11;100131.17;1790479;79;21187;-88
2021/04/02 10:17:59;;;;;;;15.98;8.25;;;;;;;17.01;38.07;100134.55;1807997;78;21171;-89
2021/04/02 10:20:55;;;;;;;9.38;7.50;;;;;;;16.92;38.57;100128.95;1824309;78;21536;-90
2021/04/02 10:27:54;;;;;;;8.40;7.03;;;;;;;16.77;38.33;100126.18;1784639;78;21140;-90
2021/04/02 10:30:24;;;;;;;10.45;7.95;;;;;;;16.78;38.67;100123.08;1789529;79;21124;-89
2021/04/02 10:36:51;;;;;;;12.43;8.50;;;;;;;16.69;39.51;100123.09;1810377;78;21147;-90
2021/04/02 10:39:21;;;;;;;13.78;8.28;;;;;;;16.65;40.24;100116.52;1816403;77;21132;-91
2021/04/02 10:46:13;;;;;;;11.83;8.13;;;;;;;16.58;40.04;100111.59;1788082;79;21013;-96
2021/04/02 10:52:48;;;;;;;12.70;7.95;;;;;;;16.52;39.12;100097.82;1808989;78;21189;-90
2021/04/02 10:55:45;;;;;;;14.83;9.13;;;;;;;16.57;39.38;100095.50;1781076;79;21083;-94
2021/04/02 10:58:14;;;;;;;10.85;8.65;;;;;;;16.60;38.83;100091.23;1781607;79;22185;-92
2021/04/02 11:00:44;;;;;;;12.13;9.28;;;;;;;16.58;38.97;100091.08;1809080;79;21107;-93
2021/04/02 11:03:12;;;;;;;15.75;9.35;;;;;;;16.56;39.16;100086.80;1834592;77;21370;-92
2021/04/02 11:06:08;;;;;;;12.80;9.08;;;;;;;16.63;39.52;100075.11;1806279;79;21135;-93
2021/04/02 11:12:28;;;;;;;13.75;8.60;;;;;;;16.80;37.57;100079.01;1785284;78;21428;-91
2021/04/02 11:15:00;;;;;;;12.20;7.65;;;;;;;16.68;37.10;100074.61;1769375;78;21623;-91
2021/04/02 11:17:30;;;;;;;14.78;6.72;;;;;;;16.55;36.77;100068.55;1779807;79;21167;-91
2021/04/02 11:19:59;;;;;;;13.60;6.58;;;;;;;16.46;37.63;100069.08;1806050;78;21119;-92
2021/04/02 11:26:51;;;;;;;17.57;7.47;;;;;;;16.33;36.40;100062.22;1786769;78;21135;-93
2021/04/02 11:33:41;;;;;;;10.23;6.75;;;;;;;16.07;38.17;100055.34;1805238;79;21149;-91
2021/04/02 11:40:37;;;;;;;12.47;7.97;;;;;;;15.95;40.16;100056.16;1809221;78;21160;-90
2021/04/02 11:43:33;;;;;;;13.23;9.27;;;;;;;15.89;40.08;100055.00;1777872;79;22331;-90
2021/04/02 11:46:09;;;;;;;10.00;8.10;;;;;;;15.82;40.36;100055.81;1773567;78;21140;-91
2021/04/02 11:52:07;;;;;;;12.53;9.55;;;;;;;15.72;41.33;100042.34;1812722;77;21568;-89
2021/04/02 11:54:37;;;;;;;15.18;9.33;;;;;;;15.71;41.78;100044.64;1814818;78;21531;-90
2021/04/02 11:57:06;;;;;;;16.50;10.50;;;;;;;15.67;42.07;100047.25;1816175;77;22237;-88
2021/04/02 11:59:38;;;;;;;13.62;9.60;;;;;;;15.65;42.09;100045.30;1818465;78;21148;-89
2021/04/02 12:02:34;;;;;;;17.48;11.05;;;;;;;15.62;42.45;100045.61;1786571;77;21242;-89
2021/04/02 12:05:07;;;;;;;22.35;14.30;;;;;;;15.57;42.93;100043.97;1806965;78;21145;-87
2021/04/02 12:14:30;;;;;;;17.00;13.90;;;;;;;15.46;44.51;100038.05;1796640;77;21613;-87
2021/04/02 12:16:58;;;;;;;16.50;13.18;;;;;;;15.47;44.78;100037.54;1798909;78;21174;-88
2021/04/02 12:19:26;;;;;;;17.27;13.40;;;;;;;15.46;44.35;100039.86;1776504;78;21118;-88
2021/04/02 12:22:22;;;;;;;15.72;12.58;;;;;;;15.45;44.76;100036.40;1782555;78;21100;-87
2021/04/02 12:24:50;;;;;;;17.73;12.82;;;;;;;15.45;45.07;100039.02;1788506;78;21367;-88
2021/04/02 12:31:14;;;;;;;16.00;12.95;;;;;;;15.43;45.23;100033.11;1757529;79;21080;-85
2021/04/02 12:33:43;;;;;;;23.18;13.30;;;;;;;15.42;45.71;100028.84;1807379;79;21179;-85
2021/04/02 12:36:19;;;;;;;16.82;13.58;;;;;;;15.38;46.30;100024.91;1808502;78;21157;-85
2021/04/02 12:38:49;;;;;;;14.00;11.95;;;;;;;15.36;46.38;100020.31;1763920;79;21199;-86
2021/04/02 12:41:18;;;;;;;13.80;11.10;;;;;;;15.34;46.92;100020.14;1769626;80;21123;-86
2021/04/02 12:44:15;;;;;;;14.68;12.55;;;;;;;15.32;47.13;100015.55;1798530;79;21556;-85
2021/04/02 12:54:43;;;;;;;18.10;13.53;;;;;;;15.22;47.37;100011.26;1804062;79;21876;-87
2021/04/02 12:57:12;;;;;;;15.50;13.30;;;;;;;15.12;48.10;100015.34;1799644;78;21166;-86
2021/04/02 13:00:13;;;;;;;15.72;12.30;;;;;;;15.05;49.17;100006.47;1761015;80;21195;-85
2021/04/02 13:02:48;;;;;;;15.30;12.30;;;;;;;15.03;49.65;100013.67;1764866;80;21650;-87
2021/04/02 13:05:17;;;;;;;13.18;11.73;;;;;;;15.03;49.52;100006.30;1747169;80;21261;-87
2021/04/02 13:08:15;;;;;;;12.85;11.40;;;;;;;15.03;49.78;100005.80;1773126;79;22231;-87
2021/04/02 13:11:13;;;;;;;17.42;11.73;;;;;;;15.04;49.87;100002.70;1766721;81;21575;-85
2021/04/02 13:13:42;;;;;;;18.98;11.70;;;;;;;15.04;49.92;99994.34;1781844;79;21560;-87
2021/04/02 13:16:46;;;;;;;15.35;11.43;;;;;;;15.07;49.79;99999.28;1803856;77;21139;-86
2021/04/02 13:23:25;;;;;;;12.90;9.33;;;;;;;15.21;50.75;99993.07;1803918;79;21043;-85
2021/04/02 13:30:18;;;;;;;13.88;8.13;;;;;;;15.35;49.72;99981.14;1803882;79;21110;-86
2021/04/02 13:37:10;;;;;;;14.47;8.73;;;;;;;15.50;48.40;99974.77;1836061;77;21583;-85
2021/04/02 13:39:39;;;;;;;15.58;8.03;;;;;;;15.52;46.77;99978.02;1819470;77;21361;-85
2021/04/02 13:42:39;;;;;;;10.88;8.83;;;;;;;15.47;46.83;99966.70;1844929;77;21124;-85
2021/04/02 13:56:09;;;;;;;11.30;8.70;;;;;;;15.20;48.37;99967.34;1831620;77;21142;-87
2021/04/02 13:58:44;;;;;;;16.75;8.70;;;;;;;15.08;47.23;99963.37;1807156;77;21399;-88
2021/04/02 14:12:50;;;;;;;10.78;8.03;;;;;;;14.62;49.26;99971.58;1770144;81;21555;-86
2021/04/02 14:20:28;;;;;;;10.78;8.65;;;;;;;14.41;50.72;99971.47;1817179;79;21155;-88
2021/04/02 14:23:06;;;;;;;15.10;8.25;;;;;;;14.29;50.89;99970.91;1813593;79;21147;-87
2021/04/02 14:29:36;;;;;;;16.07;8.50;;;;;;;14.18;52.37;99970.70;1773471;81;22136;-88
2021/04/02 14:32:36;;;;;;;13.72;9.00;;;;;;;14.13;51.79;99964.28;1773073;81;21150;-87
2021/04/02 14:35:13;;;;;;;17.32;8.45;;;;;;;14.11;52.02;99960.98;1773216;80;21051;-87
2021/04/02 14:42:32;;;;;;;29.80;10.68;;;;;;;14.06;52.06;99957.52;1773128;81;21154;-86
2021/04/02 14:53:47;;;;;;;10.98;8.25;;;;;;;13.84;53.09;99958.86;1773270;81;21125;-86
2021/04/02 15:00:47;;;;;;;12.73;7.40;;;;;;;13.67;54.17;99962.66;1773267;81;21131;-87
2021/04/02 15:07:36;;;;;;;16.12;7.83;;;;;;;13.54;55.55;99960.43;1773120;81;21158;-88
2021/04/02 15:14:28;;;;;;;22.10;7.62;;;;;;;13.40;55.27;99966.20;1772965;81;21130;-85
2021/04/02 15:29:14;;;;;;;12.23;7.35;;;;;;;13.13;58.90;99967.86;1773366;81;21545;-86